Yaupon Beach, North Carolina
Current Conditions -  °F | °C
As of 4:35 PM on Wednesday 26 Nov 2014 (Local Time) from KSUT Reporting Station
Overcast Overcast  
Wind Chill: 10°   Ceiling: 1900
Heat Index: 10°   Visibility: 10mi
Dew Point:   Wind: 9mph
Humidity: 84%   Direction: 310°NW
Pressure: 29.99"   Gusts: NA
Location:  33.9216°N, 78.1244°W
Report Text: KSUT 262135Z AUTO 31008KT 10SM OVC019 10/08 A2999 RMK AO2 T01020076
Loading
Personal Weather Stations






























Interactive Weather Map New forecast layout! Learn more

10-Day Weather Forecast

Advertisements
Track Severe Weather on mobile